createdAt,value
2019-03-19T00:00:14.594Z,4.53
2019-03-19T00:01:14.552Z,4.38
2019-03-19T00:02:14.513Z,4.40
2019-03-19T00:03:14.467Z,4.45
2019-03-19T00:04:14.441Z,4.35
2019-03-19T00:05:14.385Z,4.35
2019-03-19T00:06:14.341Z,4.31
2019-03-19T00:07:14.298Z,4.32
2019-03-19T00:08:14.255Z,4.37
2019-03-19T00:09:14.213Z,4.31
2019-03-19T00:10:14.164Z,4.22
2019-03-19T00:11:14.128Z,4.28
2019-03-19T00:12:14.079Z,4.26
2019-03-19T00:13:14.036Z,4.28
2019-03-19T00:14:13.998Z,4.24
2019-03-19T00:15:22.622Z,4.28
2019-03-19T00:17:26.564Z,4.28
2019-03-19T00:18:26.493Z,4.24
2019-03-19T00:19:26.504Z,4.16
2019-03-19T00:20:26.404Z,4.22
2019-03-19T00:21:26.356Z,4.17
2019-03-19T00:22:26.315Z,4.14
2019-03-19T00:23:26.271Z,4.12
2019-03-19T00:24:26.227Z,4.08
2019-03-19T00:25:30.215Z,4.19
2019-03-19T00:26:26.141Z,4.16
2019-03-19T00:27:26.100Z,4.22
2019-03-19T00:28:26.064Z,4.19
2019-03-19T00:29:26.014Z,4.16
2019-03-19T00:30:25.972Z,4.12
2019-03-19T00:31:25.927Z,4.16
2019-03-19T00:32:25.884Z,4.13
2019-03-19T00:33:25.841Z,4.08
2019-03-19T00:34:25.800Z,4.10
2019-03-19T00:35:25.761Z,4.13
2019-03-19T00:36:25.712Z,4.10
2019-03-19T00:37:25.669Z,4.14
2019-03-19T00:38:25.625Z,4.12
2019-03-19T00:39:25.602Z,4.13
2019-03-19T00:40:25.544Z,4.12
2019-03-19T00:41:25.496Z,4.10
2019-03-19T00:42:25.453Z,3.99
2019-03-19T00:43:25.410Z,4.06
2019-03-19T00:44:25.368Z,4.05
2019-03-19T00:45:25.329Z,3.99
2019-03-19T00:46:25.281Z,3.98
2019-03-19T00:47:25.238Z,3.94
2019-03-19T00:48:25.197Z,3.95
2019-03-19T00:49:25.153Z,3.94
2019-03-19T00:50:25.117Z,3.86
2019-03-19T00:51:25.065Z,3.87
2019-03-19T00:52:25.028Z,3.91
2019-03-19T00:53:24.979Z,3.84
2019-03-19T00:54:24.936Z,3.88
2019-03-19T00:55:24.898Z,3.84
2019-03-19T00:56:24.850Z,3.88
2019-03-19T00:57:24.806Z,3.87
2019-03-19T00:58:24.764Z,3.91
2019-03-19T00:59:24.721Z,3.87
2019-03-19T01:00:24.678Z,3.94
2019-03-19T01:01:24.636Z,3.96
2019-03-19T01:02:24.592Z,4.01
2019-03-19T01:03:24.552Z,4.02
2019-03-19T01:04:24.508Z,4.01
2019-03-19T01:05:24.463Z,3.95
2019-03-19T01:06:24.420Z,3.92
2019-03-19T01:07:24.375Z,3.96
2019-03-19T01:08:24.333Z,3.96
2019-03-19T01:09:24.289Z,3.86
2019-03-19T01:10:24.246Z,3.88
2019-03-19T01:11:24.204Z,3.81
2019-03-19T01:12:24.160Z,3.68
2019-03-19T01:13:24.116Z,3.78
2019-03-19T01:14:24.098Z,3.68
2019-03-19T01:15:24.035Z,3.70
2019-03-19T01:16:23.993Z,3.62
2019-03-19T01:17:23.943Z,3.59
2019-03-19T01:18:23.902Z,3.69
2019-03-19T01:19:23.861Z,3.66
2019-03-19T01:20:23.821Z,3.58
2019-03-19T01:21:23.777Z,3.62
2019-03-19T01:22:23.730Z,3.58
2019-03-19T01:23:23.686Z,3.59
2019-03-19T01:24:23.640Z,3.68
2019-03-19T01:25:23.596Z,3.68
2019-03-19T01:26:23.556Z,3.68
2019-03-19T01:27:23.514Z,3.60
2019-03-19T01:28:23.481Z,3.59
2019-03-19T01:29:23.431Z,3.56
2019-03-19T01:30:23.385Z,3.62
2019-03-19T01:31:23.339Z,3.62
2019-03-19T01:32:23.294Z,3.62
2019-03-19T01:33:23.256Z,3.59
2019-03-19T01:34:23.210Z,3.62
2019-03-19T01:35:23.169Z,3.58
2019-03-19T01:36:23.121Z,3.55
2019-03-19T01:37:23.076Z,3.62
2019-03-19T01:38:23.041Z,3.63
2019-03-19T01:39:22.994Z,3.58
2019-03-19T01:40:22.952Z,3.59
2019-03-19T01:41:22.909Z,3.58
2019-03-19T01:42:22.863Z,3.59
2019-03-19T01:43:22.818Z,3.59
2019-03-19T01:44:22.774Z,3.58
2019-03-19T01:45:22.729Z,3.63
2019-03-19T01:46:22.688Z,3.56
2019-03-19T01:47:22.647Z,3.62
2019-03-19T01:48:22.605Z,3.60
2019-03-19T01:49:22.580Z,3.65
2019-03-19T01:50:22.569Z,3.56
2019-03-19T01:51:22.474Z,3.60
2019-03-19T01:52:22.434Z,3.62
2019-03-19T01:53:22.388Z,3.62
2019-03-19T01:54:22.344Z,3.63
2019-03-19T01:55:22.297Z,3.70
2019-03-19T01:56:22.253Z,3.62
2019-03-19T01:57:22.209Z,3.62
2019-03-19T01:58:22.167Z,3.56
2019-03-19T01:59:22.126Z,3.56
2019-03-19T02:00:22.085Z,3.50
2019-03-19T02:01:22.040Z,3.59
2019-03-19T02:02:21.995Z,3.58
2019-03-19T02:03:21.951Z,3.50
2019-03-19T02:04:21.906Z,3.48
2019-03-19T02:05:21.867Z,3.50
2019-03-19T02:06:21.822Z,3.55
2019-03-19T02:07:21.777Z,3.56
2019-03-19T02:08:21.731Z,3.48
2019-03-19T02:09:21.687Z,3.44
2019-03-19T02:10:21.647Z,3.36
2019-03-19T02:11:21.604Z,3.47
2019-03-19T02:12:21.564Z,3.50
2019-03-19T02:13:21.518Z,3.51
2019-03-19T02:14:21.474Z,3.47
2019-03-19T02:15:21.434Z,3.44
2019-03-19T02:16:21.386Z,3.41
2019-03-19T02:17:21.344Z,3.45
2019-03-19T02:18:21.298Z,3.29
2019-03-19T02:19:21.257Z,3.32
2019-03-19T02:20:21.217Z,3.31
2019-03-19T02:21:21.165Z,3.31
2019-03-19T02:22:21.124Z,3.32
2019-03-19T02:23:21.084Z,3.45
2019-03-19T02:24:21.046Z,3.28
2019-03-19T02:25:20.997Z,3.37
2019-03-19T02:26:20.953Z,3.36
2019-03-19T02:27:20.908Z,3.44
2019-03-19T02:28:20.864Z,3.29
2019-03-19T02:29:20.818Z,3.29
2019-03-19T02:30:20.777Z,3.29
2019-03-19T02:31:20.745Z,3.28
2019-03-19T02:32:20.697Z,3.31
2019-03-19T02:33:20.666Z,3.23
2019-03-19T02:34:20.613Z,3.21
2019-03-19T02:35:20.572Z,3.21
2019-03-19T02:36:20.516Z,3.13
2019-03-19T02:37:20.476Z,3.18
2019-03-19T02:38:20.434Z,3.14
2019-03-19T02:39:20.385Z,3.18
2019-03-19T02:40:20.343Z,3.22
2019-03-19T02:41:20.299Z,3.11
2019-03-19T02:42:20.255Z,3.28
2019-03-19T02:43:22.707Z,3.25
2019-03-19T02:44:20.171Z,3.28
2019-03-19T02:45:20.127Z,3.26
2019-03-19T02:46:20.085Z,3.31
2019-03-19T02:47:20.037Z,3.29
2019-03-19T02:48:19.994Z,3.29
2019-03-19T02:49:19.951Z,3.22
2019-03-19T02:50:19.905Z,3.26
2019-03-19T02:51:19.867Z,3.25
2019-03-19T02:52:19.843Z,3.28
2019-03-19T02:53:19.774Z,3.23
2019-03-19T02:54:19.732Z,3.29
2019-03-19T02:55:19.690Z,3.25
2019-03-19T02:56:31.957Z,3.18
2019-03-19T02:57:19.608Z,3.19
2019-03-19T02:58:19.560Z,3.18
2019-03-19T02:59:19.514Z,3.16
2019-03-19T03:00:19.474Z,3.08
2019-03-19T03:01:19.436Z,3.05
2019-03-19T03:02:19.381Z,3.07
2019-03-19T03:03:19.352Z,3.11
2019-03-19T03:04:19.299Z,3.00
2019-03-19T03:05:19.256Z,3.03
2019-03-19T03:06:19.216Z,3.16
2019-03-19T03:07:19.163Z,3.14
2019-03-19T03:08:19.127Z,3.13
2019-03-19T03:09:19.080Z,3.01
2019-03-19T03:10:19.038Z,3.00
2019-03-19T03:11:18.989Z,3.04
2019-03-19T03:12:18.948Z,3.01
2019-03-19T03:13:18.921Z,3.01
2019-03-19T03:14:18.860Z,3.08
2019-03-19T03:15:18.850Z,3.08
2019-03-19T03:16:18.784Z,3.00
2019-03-19T03:17:18.734Z,2.98
2019-03-19T03:18:18.693Z,3.05
2019-03-19T03:19:18.642Z,3.03
2019-03-19T03:20:18.599Z,3.03
2019-03-19T03:21:18.555Z,3.07
2019-03-19T03:22:18.508Z,3.10
2019-03-19T03:23:18.471Z,3.04
2019-03-19T03:24:18.429Z,3.07
2019-03-19T03:25:18.380Z,3.00
2019-03-19T03:26:18.334Z,2.95
2019-03-19T03:27:18.296Z,3.03
2019-03-19T03:28:18.256Z,2.98
2019-03-19T03:29:18.208Z,3.00
2019-03-19T03:30:18.166Z,2.95
2019-03-19T03:44:00.336Z,2.90
2019-03-19T03:45:00.462Z,2.92
2019-03-19T03:46:00.217Z,2.93
2019-03-19T03:47:00.190Z,3.00
2019-03-19T03:48:00.122Z,2.95
2019-03-19T03:49:00.074Z,3.01
2019-03-19T03:50:00.040Z,2.95
2019-03-19T03:50:59.980Z,2.98
2019-03-19T03:51:59.940Z,2.95
2019-03-19T03:52:59.894Z,3.00
2019-03-19T03:53:59.872Z,2.90
2019-03-19T03:54:59.803Z,2.97
2019-03-19T03:55:59.758Z,2.93
2019-03-19T03:57:02.619Z,2.92
2019-03-19T03:57:59.676Z,2.97
2019-03-19T03:59:00.908Z,2.93
2019-03-19T03:59:59.584Z,2.97
2019-03-19T04:00:59.537Z,2.86
2019-03-19T04:01:59.491Z,2.92
2019-03-19T04:02:59.446Z,2.93
2019-03-19T04:03:59.403Z,2.97
2019-03-19T04:04:59.361Z,3.04
2019-03-19T04:05:59.320Z,3.11
2019-03-19T04:06:59.279Z,3.04
2019-03-19T04:07:59.228Z,2.98
2019-03-19T04:08:59.182Z,2.95
2019-03-19T04:09:59.137Z,2.95
2019-03-19T04:10:59.099Z,2.97
2019-03-19T04:11:59.056Z,2.97
2019-03-19T04:12:59.007Z,2.98
2019-03-19T04:13:58.963Z,2.95
2019-03-19T04:14:58.920Z,3.01
2019-03-19T04:15:58.878Z,3.03
2019-03-19T04:16:58.835Z,2.98
2019-03-19T04:17:58.792Z,2.95
2019-03-19T04:18:58.746Z,2.92
2019-03-19T04:19:58.702Z,2.86
2019-03-19T04:20:58.669Z,2.79
2019-03-19T04:21:58.612Z,2.79
2019-03-19T04:22:58.567Z,2.79
2019-03-19T04:23:58.526Z,2.72
2019-03-19T04:24:58.484Z,2.72
2019-03-19T04:25:58.440Z,2.75
2019-03-19T04:26:58.390Z,2.80
2019-03-19T04:27:58.350Z,2.77
2019-03-19T04:28:58.307Z,2.68
2019-03-19T04:29:58.268Z,2.79
2019-03-19T04:30:58.222Z,2.79
2019-03-19T04:31:58.173Z,2.75
2019-03-19T04:32:58.128Z,2.80
2019-03-19T04:33:58.083Z,2.80
2019-03-19T04:34:58.041Z,2.80
2019-03-19T04:35:57.999Z,2.83
2019-03-19T04:36:57.957Z,2.75
2019-03-19T04:37:57.921Z,2.80
2019-03-19T04:38:57.870Z,2.82
2019-03-19T04:39:57.825Z,2.86
2019-03-19T04:40:57.779Z,2.69
2019-03-19T04:41:57.733Z,2.74
2019-03-19T04:42:57.697Z,2.69
2019-03-19T04:43:57.649Z,2.77
2019-03-19T04:44:57.605Z,2.71
2019-03-19T04:45:57.556Z,2.71
2019-03-19T04:46:57.512Z,2.69
2019-03-19T04:47:57.470Z,2.74
2019-03-19T04:48:57.428Z,2.68
2019-03-19T04:49:57.388Z,2.68
2019-03-19T04:50:57.342Z,2.72
2019-03-19T04:51:57.297Z,2.69
2019-03-19T04:52:57.252Z,2.75
2019-03-19T04:53:57.209Z,2.79
2019-03-19T04:54:57.161Z,2.71
2019-03-19T04:55:57.119Z,2.72
2019-03-19T04:56:57.078Z,2.71
2019-03-19T04:57:57.035Z,2.74
2019-03-19T04:58:56.988Z,2.71
2019-03-19T04:59:58.971Z,2.74
2019-03-19T05:00:56.903Z,2.69
2019-03-19T05:01:56.859Z,2.71
2019-03-19T05:02:56.816Z,2.61
2019-03-19T05:03:56.770Z,2.72
2019-03-19T05:04:56.723Z,2.71
2019-03-19T05:05:56.679Z,2.68
2019-03-19T05:06:56.637Z,2.72
2019-03-19T05:07:56.592Z,2.72
2019-03-19T05:08:56.551Z,2.72
2019-03-19T05:09:56.509Z,2.77
2019-03-19T05:10:56.464Z,2.75
2019-03-19T05:11:56.419Z,2.71
2019-03-19T05:12:56.373Z,2.74
2019-03-19T05:13:56.328Z,2.74
2019-03-19T05:14:56.293Z,2.72
2019-03-19T05:15:56.244Z,2.77
2019-03-19T05:16:56.198Z,2.75
2019-03-19T05:17:56.152Z,2.72
2019-03-19T05:18:56.108Z,2.77
2019-03-19T05:19:56.067Z,2.74
2019-03-19T05:20:56.024Z,2.72
2019-03-19T05:21:55.987Z,2.74
2019-03-19T05:22:55.937Z,2.65
2019-03-19T05:23:55.890Z,2.74
2019-03-19T05:24:55.850Z,2.57
2019-03-19T05:25:55.799Z,2.62
2019-03-19T05:26:55.755Z,2.51
2019-03-19T05:27:55.713Z,2.56
2019-03-19T05:28:55.672Z,2.53
2019-03-19T05:29:55.629Z,2.54
2019-03-19T05:30:55.580Z,2.56
2019-03-19T05:31:55.538Z,2.57
2019-03-19T05:32:55.501Z,2.57
2019-03-19T05:33:55.453Z,2.50
2019-03-19T05:34:55.409Z,2.65
2019-03-19T05:35:55.363Z,2.65
2019-03-19T05:36:55.318Z,2.62
2019-03-19T05:37:55.273Z,2.60
2019-03-19T05:38:55.228Z,2.68
2019-03-19T05:39:55.188Z,2.64
2019-03-19T05:40:55.143Z,2.49
2019-03-19T05:41:55.101Z,2.47
2019-03-19T05:42:55.063Z,2.43
2019-03-19T05:43:55.012Z,2.42
2019-03-19T05:44:54.966Z,2.43
2019-03-19T05:45:54.920Z,2.46
2019-03-19T05:46:54.880Z,2.44
2019-03-19T05:47:54.837Z,2.44
2019-03-19T05:48:54.789Z,2.49
2019-03-19T05:49:54.743Z,2.51
2019-03-19T05:50:54.698Z,2.46
2019-03-19T05:51:54.669Z,2.54
2019-03-19T05:52:54.615Z,2.54
2019-03-19T05:53:54.573Z,2.53
2019-03-19T05:54:54.534Z,2.56
2019-03-19T05:55:54.482Z,2.62
2019-03-19T05:56:54.437Z,2.47
2019-03-19T05:57:54.391Z,2.62
2019-03-19T05:58:54.347Z,2.61
2019-03-19T05:59:54.305Z,2.60
2019-03-19T06:00:54.263Z,2.72
2019-03-19T06:01:54.222Z,2.61
2019-03-19T06:02:54.172Z,2.46
2019-03-19T06:03:54.135Z,2.39
2019-03-19T06:04:54.086Z,2.46
2019-03-19T06:05:54.047Z,2.31
2019-03-19T06:06:54.002Z,2.32
2019-03-19T06:07:53.956Z,2.32
2019-03-19T06:08:53.911Z,2.29
2019-03-19T06:09:53.863Z,2.35
2019-03-19T06:10:53.820Z,2.39
2019-03-19T06:11:53.777Z,2.50
2019-03-19T06:12:53.738Z,2.44
2019-03-19T06:13:53.696Z,2.54
2019-03-19T06:14:55.409Z,2.72
2019-03-19T06:15:53.606Z,2.65
2019-03-19T06:16:53.560Z,2.72
2019-03-19T06:17:53.517Z,2.75
2019-03-19T06:18:53.475Z,2.82
2019-03-19T06:19:53.428Z,2.87
2019-03-19T06:20:53.386Z,2.97
2019-03-19T06:21:53.337Z,2.93
2019-03-19T06:22:53.293Z,3.01
2019-03-19T06:23:53.252Z,2.98
2019-03-19T06:24:53.210Z,3.13
2019-03-19T06:25:53.168Z,3.07
2019-03-19T06:26:53.130Z,3.04
2019-03-19T06:28:00.504Z,3.08
2019-03-19T06:28:53.031Z,3.05
2019-03-19T06:29:52.987Z,3.04
2019-03-19T06:30:52.945Z,3.07
2019-03-19T06:31:52.900Z,3.10
2019-03-19T06:32:52.860Z,3.18
2019-03-19T06:33:52.820Z,3.10
2019-03-19T06:34:52.770Z,3.29
2019-03-19T06:35:52.726Z,3.23
2019-03-19T06:36:52.684Z,3.29
2019-03-19T06:37:52.642Z,3.26
2019-03-19T06:38:52.598Z,3.41
2019-03-19T06:39:52.554Z,3.26
2019-03-19T06:40:52.509Z,3.42
2019-03-19T06:41:52.464Z,3.44
2019-03-19T06:42:52.423Z,3.41
2019-03-19T06:43:52.377Z,3.40
2019-03-19T06:44:52.335Z,3.41
2019-03-19T06:45:52.293Z,3.50
2019-03-19T06:46:52.249Z,3.50
2019-03-19T06:47:52.214Z,3.53
2019-03-19T06:48:52.159Z,3.59
2019-03-19T06:49:52.114Z,3.59
2019-03-19T06:50:52.075Z,3.58
2019-03-19T06:51:52.030Z,3.60
2019-03-19T06:52:51.987Z,3.55
2019-03-19T06:53:51.941Z,3.58
2019-03-19T06:54:51.897Z,3.59
2019-03-19T06:55:51.854Z,3.48
2019-03-19T06:56:51.813Z,3.48
2019-03-19T06:57:51.773Z,3.55
2019-03-19T06:58:51.729Z,3.56
2019-03-19T06:59:51.683Z,3.60
2019-03-19T07:00:51.637Z,3.68
2019-03-19T07:01:51.591Z,3.55
2019-03-19T07:02:51.548Z,3.66
2019-03-19T07:03:51.507Z,3.69
2019-03-19T07:04:51.467Z,3.78
2019-03-19T07:05:51.425Z,3.74
2019-03-19T07:06:51.375Z,3.84
2019-03-19T07:07:51.333Z,3.76
2019-03-19T07:08:51.292Z,3.87
2019-03-19T07:09:51.252Z,3.88
2019-03-19T07:10:51.206Z,3.87
2019-03-19T07:11:51.162Z,3.99
2019-03-19T07:12:51.118Z,4.08
2019-03-19T07:13:51.071Z,4.08
2019-03-19T07:14:51.028Z,4.06
2019-03-19T07:15:50.987Z,4.13
2019-03-19T07:16:50.945Z,4.14
2019-03-19T07:17:50.908Z,4.26
2019-03-19T07:18:50.865Z,4.34
2019-03-19T07:19:50.815Z,4.35
2019-03-19T07:20:50.772Z,4.37
2019-03-19T07:21:50.726Z,4.34
2019-03-19T07:22:50.689Z,4.41
2019-03-19T07:23:50.652Z,4.50
2019-03-19T07:24:50.600Z,4.41
2019-03-19T07:25:50.553Z,4.42
2019-03-19T07:26:50.510Z,4.50
2019-03-19T07:27:50.470Z,4.49
2019-03-19T07:28:50.428Z,4.52
2019-03-19T07:29:50.389Z,4.50
2019-03-19T07:30:50.342Z,4.58
2019-03-19T07:31:50.300Z,4.63
2019-03-19T07:32:50.251Z,4.70
2019-03-19T07:33:50.212Z,4.66
2019-03-19T07:34:50.168Z,4.74
2019-03-19T07:35:50.124Z,4.66
2019-03-19T07:36:50.087Z,4.73
2019-03-19T07:37:50.044Z,4.82
2019-03-19T07:38:49.995Z,4.80
2019-03-19T07:39:49.952Z,4.86
2019-03-19T07:40:49.915Z,4.94
2019-03-19T07:41:49.872Z,4.94
2019-03-19T07:42:49.828Z,4.99
2019-03-19T07:43:49.798Z,4.97
2019-03-19T07:44:49.739Z,5.04
2019-03-19T07:45:49.699Z,5.05
2019-03-19T07:46:49.655Z,5.05
2019-03-19T07:47:49.609Z,5.10
2019-03-19T07:48:49.578Z,5.10
2019-03-19T07:49:49.529Z,5.10
2019-03-19T07:50:49.485Z,5.12
2019-03-19T07:51:49.446Z,5.14
2019-03-19T07:52:49.399Z,5.20
2019-03-19T07:53:49.358Z,5.20
2019-03-19T07:54:49.314Z,5.25
2019-03-19T07:55:49.274Z,5.35
2019-03-19T07:56:49.226Z,5.29
2019-03-19T07:57:49.186Z,5.29
2019-03-19T07:58:49.143Z,5.35
2019-03-19T07:59:49.100Z,5.41
2019-03-19T08:00:49.063Z,5.46
2019-03-19T08:01:49.017Z,5.46
2019-03-19T08:02:48.977Z,5.46
2019-03-19T08:03:48.937Z,5.46
2019-03-19T08:04:48.886Z,5.53
2019-03-19T08:05:48.847Z,5.56
2019-03-19T08:06:48.810Z,5.66
2019-03-19T08:07:48.760Z,5.59
2019-03-19T08:08:48.724Z,5.64
2019-03-19T08:09:48.679Z,5.73
2019-03-19T08:10:48.636Z,5.80
2019-03-19T08:11:48.591Z,5.82
2019-03-19T08:12:48.558Z,5.82
2019-03-19T08:13:48.510Z,5.84
2019-03-19T08:14:48.473Z,5.80
2019-03-19T08:15:48.427Z,5.87
2019-03-19T08:16:48.383Z,5.99
2019-03-19T08:17:48.339Z,5.97
2019-03-19T08:18:48.302Z,5.98
2019-03-19T08:19:48.253Z,6.11
2019-03-19T08:20:48.216Z,6.07
2019-03-19T08:21:48.174Z,6.09
2019-03-19T08:22:48.129Z,6.12
2019-03-19T08:23:48.099Z,6.08
2019-03-19T08:24:48.045Z,6.11
2019-03-19T08:25:48.005Z,6.20
2019-03-19T08:26:49.196Z,6.19
2019-03-19T08:27:47.924Z,6.28
2019-03-19T08:28:55.043Z,6.19
2019-03-19T08:29:47.835Z,6.20
2019-03-19T08:30:47.793Z,6.19
2019-03-19T08:31:47.749Z,6.19
2019-03-19T08:32:47.713Z,6.30
2019-03-19T08:33:47.670Z,6.28
2019-03-19T08:34:47.626Z,6.33
2019-03-19T08:35:47.626Z,6.22
2019-03-19T08:36:47.547Z,6.35
2019-03-19T08:37:47.506Z,6.41
2019-03-19T08:38:47.458Z,6.44
2019-03-19T08:39:47.413Z,6.44
2019-03-19T08:40:47.378Z,6.42
2019-03-19T08:41:47.336Z,6.49
2019-03-19T08:42:47.293Z,6.44
2019-03-19T08:43:47.247Z,6.56
2019-03-19T08:44:47.210Z,6.57
2019-03-19T08:45:47.167Z,6.52
2019-03-19T08:46:47.124Z,6.64
2019-03-19T08:47:47.084Z,6.57
2019-03-19T08:48:47.037Z,6.62
2019-03-19T08:49:46.997Z,6.70
2019-03-19T08:50:46.955Z,6.62
2019-03-19T08:51:46.911Z,6.66
2019-03-19T08:52:46.876Z,6.69
2019-03-19T08:53:46.833Z,6.78
2019-03-19T08:54:46.792Z,6.87
2019-03-19T08:55:46.753Z,6.77
2019-03-19T08:56:46.703Z,6.81
2019-03-19T08:57:46.667Z,6.77
2019-03-19T08:58:46.622Z,6.77
2019-03-19T08:59:46.584Z,6.77
2019-03-19T09:00:46.536Z,6.77
2019-03-19T09:01:47.429Z,6.88
2019-03-19T09:02:46.456Z,6.74
2019-03-19T09:03:46.415Z,6.70
2019-03-19T09:04:46.376Z,6.74
2019-03-19T09:05:46.333Z,6.85
2019-03-19T09:06:46.290Z,6.88
2019-03-19T09:07:46.256Z,6.95
2019-03-19T09:08:46.206Z,6.92
2019-03-19T09:09:46.164Z,6.93
2019-03-19T09:10:46.122Z,6.92
2019-03-19T09:11:46.078Z,6.92
2019-03-19T09:12:48.194Z,6.82
2019-03-19T09:13:46.001Z,6.82
2019-03-19T09:14:45.956Z,6.70
2019-03-19T09:15:45.914Z,6.84
2019-03-19T09:16:45.878Z,6.84
2019-03-19T09:17:45.835Z,6.99
2019-03-19T09:18:45.846Z,7.03
2019-03-19T09:19:45.753Z,7.07
2019-03-19T09:20:45.705Z,7.06
2019-03-19T09:21:45.666Z,7.18
2019-03-19T09:22:45.632Z,7.20
2019-03-19T09:23:45.582Z,7.23
2019-03-19T09:24:45.546Z,7.23
2019-03-19T09:25:45.508Z,7.13
2019-03-19T09:26:45.461Z,7.11
2019-03-19T09:27:45.421Z,7.21
2019-03-19T09:28:45.412Z,7.10
2019-03-19T09:29:45.335Z,7.07
2019-03-19T09:30:45.296Z,7.07
2019-03-19T09:31:45.256Z,7.07
2019-03-19T09:32:45.210Z,7.10
2019-03-19T09:33:45.171Z,7.05
2019-03-19T09:34:45.127Z,7.10
2019-03-19T09:35:45.086Z,7.14
2019-03-19T09:36:45.083Z,7.07
2019-03-19T09:37:57.235Z,7.14
2019-03-19T09:38:44.965Z,7.21
2019-03-19T09:39:44.928Z,7.18
2019-03-19T09:40:44.878Z,7.15
2019-03-19T09:41:44.838Z,7.20
2019-03-19T09:42:44.801Z,7.31
2019-03-19T09:43:44.755Z,7.18
2019-03-19T09:57:28.865Z,7.31
2019-03-19T09:58:28.808Z,7.36
2019-03-19T09:59:28.761Z,7.36
2019-03-19T10:00:28.711Z,7.40
2019-03-19T10:01:28.667Z,7.48
2019-03-19T10:02:28.627Z,7.51
2019-03-19T10:03:28.583Z,7.57
2019-03-19T10:04:28.544Z,7.57
2019-03-19T10:05:28.494Z,7.53
2019-03-19T10:06:28.451Z,7.54
2019-03-19T10:07:28.408Z,7.54
2019-03-19T10:08:28.364Z,7.60
2019-03-19T10:09:28.323Z,7.63
2019-03-19T10:10:28.322Z,7.60
2019-03-19T10:11:28.242Z,7.60
2019-03-19T10:12:28.202Z,7.53
2019-03-19T10:13:28.157Z,7.66
2019-03-19T10:14:28.113Z,7.60
2019-03-19T10:15:28.072Z,7.51
2019-03-19T10:16:28.034Z,7.50
2019-03-19T10:17:27.992Z,7.54
2019-03-19T10:18:27.947Z,7.58
2019-03-19T10:19:27.911Z,7.53
2019-03-19T10:20:27.863Z,7.57
2019-03-19T10:21:27.829Z,7.66
2019-03-19T10:22:27.782Z,7.76
2019-03-19T10:23:27.744Z,7.76
2019-03-19T10:24:27.702Z,7.75
2019-03-19T10:25:27.660Z,7.73
2019-03-19T10:26:27.615Z,7.77
2019-03-19T10:27:27.574Z,7.70
2019-03-19T10:28:27.532Z,7.58
2019-03-19T10:29:37.565Z,7.54
2019-03-19T10:30:27.456Z,7.69
2019-03-19T10:31:27.424Z,7.69
2019-03-19T10:32:27.366Z,7.83
2019-03-19T10:33:27.326Z,7.75
2019-03-19T10:34:27.288Z,7.91
2019-03-19T10:35:27.249Z,7.88
2019-03-19T10:36:27.214Z,7.95
2019-03-19T10:37:27.163Z,8.05
2019-03-19T10:38:27.121Z,7.93
2019-03-19T10:39:27.077Z,7.90
2019-03-19T10:40:27.037Z,7.87
2019-03-19T10:41:26.997Z,7.91
2019-03-19T10:42:26.958Z,7.90
2019-03-19T10:43:26.920Z,7.90
2019-03-19T10:44:26.879Z,7.94
2019-03-19T10:45:26.835Z,7.93
2019-03-19T10:46:26.795Z,7.93
2019-03-19T10:47:26.749Z,8.05
2019-03-19T10:48:26.716Z,8.06
2019-03-19T10:49:26.671Z,8.19
2019-03-19T10:50:26.629Z,8.33
2019-03-19T10:51:26.587Z,8.38
2019-03-19T10:52:26.547Z,8.37
2019-03-19T10:53:26.506Z,8.52
2019-03-19T10:54:26.467Z,8.44
2019-03-19T10:55:26.428Z,8.42
2019-03-19T10:56:26.389Z,8.46
2019-03-19T10:57:26.347Z,8.36
2019-03-19T10:58:26.303Z,8.48
2019-03-19T10:59:26.261Z,8.45
2019-03-19T11:00:26.221Z,8.41
2019-03-19T11:01:26.179Z,8.44
2019-03-19T11:02:26.145Z,8.46
2019-03-19T11:03:26.102Z,8.46
2019-03-19T11:04:26.057Z,8.49
2019-03-19T11:05:26.018Z,8.61
2019-03-19T11:06:25.979Z,8.61
2019-03-19T11:07:25.941Z,8.61
2019-03-19T11:08:25.906Z,8.55
2019-03-19T11:09:25.859Z,8.48
2019-03-19T11:10:25.815Z,8.48
2019-03-19T11:11:25.772Z,8.36
2019-03-19T11:12:25.734Z,8.41
2019-03-19T11:13:25.693Z,8.37
2019-03-19T11:14:25.651Z,8.36
2019-03-19T11:15:25.615Z,8.33
2019-03-19T11:16:25.575Z,8.44
2019-03-19T11:17:25.532Z,8.53
2019-03-19T11:18:25.488Z,8.53
2019-03-19T11:19:25.447Z,8.49
2019-03-19T11:20:25.414Z,8.48
2019-03-19T11:21:25.369Z,8.46
2019-03-19T11:22:25.329Z,8.55
2019-03-19T11:23:25.284Z,8.51
2019-03-19T11:24:25.245Z,8.58
2019-03-19T11:25:25.204Z,8.55
2019-03-19T11:26:25.167Z,8.53
2019-03-19T11:27:25.128Z,8.64
2019-03-19T11:28:25.088Z,8.70
2019-03-19T11:29:25.047Z,8.58
2019-03-19T11:30:25.003Z,8.61
2019-03-19T11:31:24.961Z,8.58
2019-03-19T11:32:24.921Z,8.55
2019-03-19T11:33:24.880Z,8.67
2019-03-19T11:34:24.845Z,8.81
2019-03-19T11:35:24.805Z,8.82
2019-03-19T11:36:24.759Z,8.87
2019-03-19T11:37:24.723Z,8.84
2019-03-19T11:38:24.680Z,8.76
2019-03-19T11:39:24.642Z,8.74
2019-03-19T11:40:25.889Z,8.79
2019-03-19T11:41:24.559Z,8.84
2019-03-19T11:42:24.516Z,8.81
2019-03-19T11:43:24.476Z,8.85
2019-03-19T11:44:24.438Z,8.85
2019-03-19T11:45:24.393Z,8.85
2019-03-19T11:46:24.359Z,8.84
2019-03-19T11:47:24.317Z,8.84
2019-03-19T11:48:24.277Z,8.91
2019-03-19T11:49:24.237Z,8.97
2019-03-19T11:50:24.197Z,9.08
2019-03-19T11:51:24.155Z,9.11
2019-03-19T11:52:24.116Z,9.06
2019-03-19T11:53:24.079Z,9.03
2019-03-19T11:54:24.031Z,9.14
2019-03-19T11:55:23.997Z,9.02
2019-03-19T11:56:23.953Z,9.03
2019-03-19T11:57:23.909Z,9.16
2019-03-19T11:58:23.875Z,9.11
2019-03-19T11:59:23.837Z,9.14
2019-03-19T12:00:23.794Z,9.04
2019-03-19T12:01:23.755Z,9.21
2019-03-19T12:02:26.190Z,9.21
2019-03-19T12:03:23.673Z,9.21
2019-03-19T12:04:23.632Z,9.26
2019-03-19T12:05:23.589Z,9.13
2019-03-19T12:06:23.555Z,9.19
2019-03-19T12:07:23.514Z,9.31
2019-03-19T12:08:23.472Z,9.22
2019-03-19T12:09:23.428Z,9.25
2019-03-19T12:10:23.398Z,9.34
2019-03-19T12:11:23.353Z,9.54
2019-03-19T12:12:23.322Z,9.48
2019-03-19T12:13:23.273Z,9.59
2019-03-19T12:14:23.229Z,9.50
2019-03-19T12:15:23.203Z,9.56
2019-03-19T12:16:23.152Z,9.48
2019-03-19T12:17:23.115Z,9.55
2019-03-19T12:18:23.075Z,9.58
2019-03-19T12:19:23.033Z,9.44
2019-03-19T12:20:22.993Z,9.44
2019-03-19T12:21:22.954Z,9.51
2019-03-19T12:22:22.912Z,9.56
2019-03-19T12:23:22.870Z,9.62
2019-03-19T12:24:22.835Z,9.69
2019-03-19T12:25:22.796Z,9.74
2019-03-19T12:26:22.751Z,9.69
2019-03-19T12:27:22.713Z,9.76
2019-03-19T12:28:22.673Z,9.76
2019-03-19T12:29:22.629Z,9.83
2019-03-19T12:30:25.801Z,9.76
2019-03-19T12:31:22.554Z,9.80
2019-03-19T12:32:22.529Z,9.80
2019-03-19T12:33:22.474Z,9.87
2019-03-19T12:34:22.431Z,9.87
2019-03-19T12:35:22.397Z,10.07
2019-03-19T12:36:22.353Z,9.97
2019-03-19T12:37:22.311Z,9.95
2019-03-19T12:38:22.279Z,9.79
2019-03-19T12:39:22.237Z,9.77
2019-03-19T12:40:22.195Z,9.79
2019-03-19T12:41:22.153Z,9.84
2019-03-19T12:42:22.130Z,9.74
2019-03-19T12:43:22.077Z,9.64
2019-03-19T12:44:22.038Z,9.72
2019-03-19T12:45:22.003Z,9.86
2019-03-19T12:46:21.956Z,9.95
2019-03-19T12:47:21.919Z,10.01
2019-03-19T12:48:21.878Z,10.10
2019-03-19T12:49:21.835Z,10.02
2019-03-19T12:50:21.802Z,10.05
2019-03-19T12:51:21.761Z,9.99
2019-03-19T12:52:21.723Z,9.98
2019-03-19T12:53:21.682Z,10.12
2019-03-19T12:54:21.638Z,10.05
2019-03-19T12:55:21.598Z,9.98
2019-03-19T12:56:21.561Z,9.94
2019-03-19T12:57:21.524Z,9.98
2019-03-19T12:58:21.478Z,10.05
2019-03-19T12:59:21.442Z,10.09
2019-03-19T13:00:29.318Z,10.09
2019-03-19T13:01:21.392Z,10.09
2019-03-19T13:02:21.325Z,10.15
2019-03-19T13:03:21.286Z,10.07
2019-03-19T13:04:21.245Z,10.12
2019-03-19T13:05:22.570Z,10.15
2019-03-19T13:06:21.163Z,10.04
2019-03-19T13:07:21.124Z,10.10
2019-03-19T13:08:21.084Z,10.12
2019-03-19T13:09:21.042Z,9.95
2019-03-19T13:10:21.010Z,9.94
2019-03-19T13:11:20.967Z,9.87
2019-03-19T13:12:20.927Z,10.13
2019-03-19T13:13:20.883Z,10.07
2019-03-19T13:14:20.851Z,10.12
2019-03-19T13:15:20.812Z,10.13
2019-03-19T13:16:20.771Z,10.12
2019-03-19T13:17:20.732Z,9.99
2019-03-19T13:18:20.686Z,9.94
2019-03-19T13:19:20.649Z,9.95
2019-03-19T13:20:20.608Z,9.92
2019-03-19T13:21:20.567Z,9.99
2019-03-19T13:22:20.535Z,9.98
2019-03-19T13:23:20.492Z,9.95
2019-03-19T13:24:20.453Z,9.95
2019-03-19T13:25:20.436Z,10.05
2019-03-19T13:26:20.370Z,9.97
2019-03-19T13:27:20.331Z,10.15
2019-03-19T13:28:20.300Z,10.15
2019-03-19T13:29:20.257Z,10.12
2019-03-19T13:30:20.211Z,10.13
2019-03-19T13:31:20.174Z,9.99
2019-03-19T13:32:20.135Z,10.13
2019-03-19T13:33:20.092Z,10.17
2019-03-19T13:34:20.059Z,10.17
2019-03-19T13:35:20.020Z,10.22
2019-03-19T13:36:19.982Z,10.38
2019-03-19T13:37:19.942Z,10.25
2019-03-19T13:38:19.895Z,10.26
2019-03-19T13:39:19.861Z,10.17
2019-03-19T13:40:19.826Z,10.16
2019-03-19T13:41:19.776Z,10.13
2019-03-19T13:42:19.742Z,10.09
2019-03-19T13:43:19.700Z,10.15